createdAt,value
2022-12-28T00:01:30.900Z,2.21
2022-12-28T00:04:04.564Z,2.11
2022-12-28T00:06:34.363Z,2.45
2022-12-28T00:09:13.443Z,2.43
2022-12-28T00:11:40.736Z,2.51
2022-12-28T00:14:08.320Z,2.56
2022-12-28T00:16:40.846Z,2.57
2022-12-28T00:19:12.923Z,2.65
2022-12-28T00:21:40.388Z,2.58
2022-12-28T00:24:08.649Z,2.53
2022-12-28T00:26:36.191Z,2.65
2022-12-28T00:29:05.737Z,2.63
2022-12-28T00:31:34.215Z,2.55
2022-12-28T00:34:02.793Z,2.52
2022-12-28T00:37:11.094Z,2.40
2022-12-28T00:39:19.449Z,2.35
2022-12-28T00:41:46.696Z,2.35
2022-12-28T00:44:13.780Z,2.25
2022-12-28T00:46:41.720Z,2.24
2022-12-28T00:49:08.929Z,2.42
2022-12-28T00:51:36.071Z,2.49
2022-12-28T00:54:03.419Z,2.32
2022-12-28T00:56:31.086Z,2.32
2022-12-28T00:58:59.481Z,2.43
2022-12-28T01:01:28.398Z,2.45
2022-12-28T01:03:58.823Z,2.40
2022-12-28T01:06:27.346Z,2.45
2022-12-28T01:08:54.807Z,2.42
2022-12-28T01:11:27.226Z,2.38
2022-12-28T01:13:56.240Z,2.31
2022-12-28T01:16:25.261Z,2.25
2022-12-28T01:18:55.319Z,2.21
2022-12-28T01:21:25.426Z,2.17
2022-12-28T01:23:57.520Z,2.18
2022-12-28T01:26:25.982Z,2.21
2022-12-28T01:28:53.136Z,2.29
2022-12-28T01:31:21.898Z,2.13
2022-12-28T01:33:50.904Z,2.21
2022-12-28T01:36:23.583Z,2.20
2022-12-28T01:38:57.200Z,2.27
2022-12-28T01:41:26.170Z,2.31
2022-12-28T01:43:53.133Z,2.30
2022-12-28T01:46:55.360Z,2.00
2022-12-28T01:49:33.583Z,2.15
2022-12-28T01:52:08.227Z,1.94
2022-12-28T01:54:49.621Z,1.83
2022-12-28T01:57:19.688Z,1.83
2022-12-28T01:59:56.057Z,1.78
2022-12-28T02:02:23.993Z,1.74
2022-12-28T02:04:53.500Z,1.65
2022-12-28T02:07:36.406Z,1.80
2022-12-28T02:10:41.252Z,1.80
2022-12-28T02:12:55.823Z,1.67
2022-12-28T02:15:23.469Z,1.80
2022-12-28T02:17:51.185Z,1.87
2022-12-28T02:20:18.690Z,1.87
2022-12-28T02:23:07.423Z,1.94
2022-12-28T02:26:10.448Z,1.99
2022-12-28T02:29:14.557Z,1.91
2022-12-28T02:31:56.562Z,1.73
2022-12-28T02:34:33.810Z,1.83
2022-12-28T02:37:08.442Z,1.76
2022-12-28T02:39:43.361Z,1.76
2022-12-28T02:42:12.664Z,1.60
2022-12-28T02:44:58.534Z,1.53
2022-12-28T02:47:44.067Z,1.51
2022-12-28T02:50:14.974Z,1.67
2022-12-28T02:52:54.418Z,1.62
2022-12-28T02:56:13.242Z,1.55
2022-12-28T02:58:59.528Z,1.46
2022-12-28T03:01:33.984Z,1.22
2022-12-28T03:04:24.074Z,1.08
2022-12-28T03:07:22.505Z,0.94
2022-12-28T03:10:06.485Z,1.09
2022-12-28T03:12:43.371Z,1.10
2022-12-28T03:15:29.643Z,1.39
2022-12-28T03:18:25.110Z,1.51
2022-12-28T03:21:14.029Z,1.53
2022-12-28T03:24:03.351Z,1.49
2022-12-28T03:26:52.440Z,1.51
2022-12-28T03:29:42.365Z,1.60
2022-12-28T03:32:10.180Z,1.80
2022-12-28T03:34:37.449Z,1.96
2022-12-28T03:37:27.586Z,2.12
2022-12-28T03:40:08.816Z,2.07
2022-12-28T03:43:07.277Z,2.13
2022-12-28T03:45:55.969Z,2.02
2022-12-28T03:48:25.163Z,1.86
2022-12-28T03:50:54.177Z,1.89
2022-12-28T03:53:27.011Z,1.92
2022-12-28T03:56:17.704Z,1.98
2022-12-28T03:58:47.433Z,1.92
2022-12-28T04:01:16.610Z,1.85
2022-12-28T04:03:44.813Z,1.84
2022-12-28T04:06:13.547Z,1.82
2022-12-28T04:08:40.712Z,1.84
2022-12-28T04:11:07.991Z,1.84
2022-12-28T04:13:35.179Z,1.82
2022-12-28T04:16:13.830Z,1.81
2022-12-28T04:18:42.738Z,1.74
2022-12-28T04:21:11.679Z,1.75
2022-12-28T04:23:41.815Z,1.85
2022-12-28T04:26:26.701Z,1.81
2022-12-28T04:28:54.555Z,1.92
2022-12-28T04:31:21.509Z,1.92
2022-12-28T04:33:57.100Z,2.02
2022-12-28T04:36:24.614Z,2.01
2022-12-28T04:38:52.068Z,2.07
2022-12-28T04:41:19.114Z,2.02
2022-12-28T04:43:46.176Z,2.02
2022-12-28T04:46:15.645Z,2.11
2022-12-28T04:48:43.390Z,2.13
2022-12-28T04:51:17.111Z,2.08
2022-12-28T04:53:44.218Z,2.03
2022-12-28T04:56:13.184Z,1.95
2022-12-28T04:58:41.136Z,1.95
2022-12-28T05:01:11.275Z,1.94
2022-12-28T05:03:40.804Z,2.01
2022-12-28T05:06:11.639Z,2.07
2022-12-28T05:08:39.289Z,2.09
2022-12-28T05:11:10.771Z,1.84
2022-12-28T05:13:37.849Z,1.75
2022-12-28T05:16:17.011Z,1.68
2022-12-28T05:18:44.971Z,1.67
2022-12-28T05:21:15.575Z,1.64
2022-12-28T05:23:43.657Z,1.67
2022-12-28T05:26:16.238Z,1.64
2022-12-28T05:28:43.739Z,1.56
2022-12-28T05:31:17.215Z,1.58
2022-12-28T05:33:44.473Z,1.59
2022-12-28T05:36:14.490Z,1.65
2022-12-28T05:38:42.235Z,1.70
2022-12-28T05:41:23.202Z,1.74
2022-12-28T05:43:50.790Z,1.72
2022-12-28T05:46:20.790Z,1.79
2022-12-28T05:48:48.624Z,1.84
2022-12-28T05:51:21.611Z,1.86
2022-12-28T05:53:49.248Z,1.89
2022-12-28T05:56:18.925Z,1.86
2022-12-28T05:58:52.039Z,2.10
2022-12-28T06:01:21.504Z,2.15
2022-12-28T06:03:53.219Z,2.19
2022-12-28T06:06:20.900Z,2.28
2022-12-28T06:08:49.338Z,2.26
2022-12-28T06:11:18.888Z,2.16
2022-12-28T06:13:46.687Z,2.20
2022-12-28T06:16:16.700Z,2.23
2022-12-28T06:18:44.862Z,2.18
2022-12-28T06:21:18.605Z,2.11
2022-12-28T06:23:47.083Z,2.19
2022-12-28T06:26:17.227Z,2.17
2022-12-28T06:28:44.816Z,2.20
2022-12-28T06:31:17.698Z,2.25
2022-12-28T06:33:45.819Z,2.26
2022-12-28T06:36:20.654Z,2.31
2022-12-28T06:38:50.027Z,2.36
2022-12-28T06:41:19.785Z,2.41
2022-12-28T06:43:48.338Z,2.42
2022-12-28T06:46:16.754Z,2.59
2022-12-28T06:48:44.257Z,2.54
2022-12-28T06:51:20.615Z,2.48
2022-12-28T06:53:49.295Z,2.48
2022-12-28T06:56:20.740Z,2.58
2022-12-28T06:58:49.558Z,2.55
2022-12-28T07:01:19.720Z,2.69
2022-12-28T07:03:49.284Z,2.75
2022-12-28T07:06:18.432Z,2.69
2022-12-28T07:08:45.986Z,2.78
2022-12-28T07:11:15.963Z,2.83
2022-12-28T07:13:43.136Z,2.79
2022-12-28T07:16:15.784Z,2.97
2022-12-28T07:18:43.225Z,3.02
2022-12-28T07:21:17.982Z,3.04
2022-12-28T07:23:44.997Z,3.08
2022-12-28T07:26:22.165Z,3.15
2022-12-28T07:28:51.827Z,3.26
2022-12-28T07:31:25.309Z,3.32
2022-12-28T07:33:55.501Z,3.43
2022-12-28T07:36:24.934Z,3.44
2022-12-28T07:38:52.751Z,3.46
2022-12-28T07:41:20.996Z,3.59
2022-12-28T07:43:48.174Z,3.51
2022-12-28T07:46:22.031Z,3.46
2022-12-28T07:48:49.887Z,3.54
2022-12-28T07:51:39.200Z,3.53
2022-12-28T07:54:06.548Z,3.53
2022-12-28T07:59:03.793Z,3.73
2022-12-28T08:01:33.435Z,3.71
2022-12-28T08:04:04.386Z,3.75
2022-12-28T08:06:35.021Z,3.82
2022-12-28T08:09:02.518Z,3.81
2022-12-28T08:11:33.109Z,3.83
2022-12-28T08:14:01.567Z,3.80
2022-12-28T08:16:32.726Z,3.89
2022-12-28T08:19:01.096Z,3.90
2022-12-28T08:21:34.337Z,3.94
2022-12-28T08:24:02.298Z,3.91
2022-12-28T08:26:31.222Z,3.92
2022-12-28T08:29:01.066Z,4.10
2022-12-28T08:31:32.146Z,4.22
2022-12-28T08:34:01.900Z,4.41
2022-12-28T08:36:30.777Z,4.38
2022-12-28T08:38:58.308Z,4.41
2022-12-28T08:41:27.145Z,4.35
2022-12-28T08:43:55.003Z,4.41
2022-12-28T08:46:23.779Z,4.54
2022-12-28T08:48:52.423Z,4.68
2022-12-28T08:51:22.832Z,4.94
2022-12-28T08:53:53.288Z,5.06
2022-12-28T08:56:23.908Z,5.18
2022-12-28T08:58:51.365Z,5.30
2022-12-28T09:01:24.002Z,5.34
2022-12-28T09:03:53.755Z,5.46
2022-12-28T09:06:24.092Z,5.40
2022-12-28T09:09:08.787Z,5.44
2022-12-28T09:11:36.842Z,5.56
2022-12-28T09:14:05.534Z,5.60
2022-12-28T09:16:33.156Z,5.63
2022-12-28T09:19:04.759Z,5.72
2022-12-28T09:21:35.286Z,5.75
2022-12-28T09:24:02.741Z,5.80
2022-12-28T09:26:36.848Z,5.93
2022-12-28T09:29:06.556Z,5.91
2022-12-28T09:31:37.128Z,5.92
2022-12-28T09:36:52.945Z,6.05
2022-12-28T09:39:24.547Z,6.25
2022-12-28T09:42:16.835Z,6.27
2022-12-28T09:44:55.909Z,6.30
2022-12-28T09:47:33.172Z,6.42
2022-12-28T09:50:17.270Z,6.37
2022-12-28T09:53:39.738Z,6.36
2022-12-28T09:56:26.948Z,6.28
2022-12-28T09:58:54.996Z,6.25
2022-12-28T10:01:23.277Z,6.23
2022-12-28T10:03:50.628Z,6.42
2022-12-28T10:06:37.695Z,6.29
2022-12-28T10:09:12.150Z,6.43
2022-12-28T10:11:46.479Z,6.31
2022-12-28T10:14:52.693Z,6.33
2022-12-28T10:17:28.262Z,6.29
2022-12-28T10:20:03.020Z,6.35
2022-12-28T10:22:46.355Z,6.50
2022-12-28T10:25:25.360Z,6.55
2022-12-28T10:27:53.537Z,6.42
2022-12-28T10:30:32.327Z,6.58
2022-12-28T10:33:15.783Z,6.66
2022-12-28T10:35:56.859Z,6.67
2022-12-28T10:38:57.931Z,6.76
2022-12-28T10:41:35.613Z,6.95
2022-12-28T10:44:38.353Z,6.89
2022-12-28T10:47:05.946Z,7.07
2022-12-28T10:49:43.896Z,7.08
2022-12-28T10:52:33.685Z,7.06
2022-12-28T10:55:08.221Z,7.12
2022-12-28T10:57:55.761Z,7.00
2022-12-28T11:00:26.080Z,7.02
2022-12-28T11:02:53.276Z,6.92
2022-12-28T11:05:27.615Z,7.10
2022-12-28T11:08:14.719Z,6.98
2022-12-28T11:10:41.906Z,6.94
2022-12-28T11:13:22.254Z,6.87
2022-12-28T11:15:56.992Z,7.08
2022-12-28T11:18:37.708Z,6.93
2022-12-28T11:21:17.223Z,7.07
2022-12-28T11:23:45.179Z,7.09
2022-12-28T11:26:21.258Z,7.10
2022-12-28T11:28:54.545Z,7.18
2022-12-28T11:31:54.279Z,7.14
2022-12-28T11:34:29.622Z,7.11
2022-12-28T11:37:04.169Z,7.21
2022-12-28T11:39:42.936Z,7.14
2022-12-28T11:42:41.130Z,7.26
2022-12-28T11:45:13.386Z,7.31
2022-12-28T11:47:40.515Z,7.29
2022-12-28T11:50:42.576Z,7.31
2022-12-28T11:53:45.439Z,7.49
2022-12-28T11:56:25.749Z,7.52
2022-12-28T11:59:23.172Z,7.37
2022-12-28T12:01:55.982Z,7.36
2022-12-28T12:04:33.471Z,7.39
2022-12-28T12:07:03.337Z,7.42
2022-12-28T12:09:40.758Z,7.48
2022-12-28T12:12:17.673Z,7.52
2022-12-28T12:15:14.627Z,7.59
2022-12-28T12:17:50.353Z,7.60
2022-12-28T12:20:35.961Z,7.49
2022-12-28T12:23:12.213Z,7.46
2022-12-28T12:25:46.956Z,7.52
2022-12-28T12:28:32.454Z,7.50
2022-12-28T12:31:10.561Z,7.57
2022-12-28T12:33:46.517Z,7.47
2022-12-28T12:36:16.241Z,7.36
2022-12-28T12:38:56.353Z,7.42
2022-12-28T12:41:59.696Z,7.42
2022-12-28T12:44:58.944Z,7.30
2022-12-28T12:48:04.729Z,7.18
2022-12-28T12:50:54.510Z,7.18
2022-12-28T12:53:48.150Z,7.25
2022-12-28T12:56:56.802Z,7.12
2022-12-28T12:59:41.213Z,7.14
2022-12-28T13:02:13.731Z,7.19
2022-12-28T13:04:44.319Z,7.30
2022-12-28T13:07:26.945Z,7.46
2022-12-28T13:10:03.755Z,7.33
2022-12-28T13:12:32.635Z,7.33
2022-12-28T13:15:10.664Z,7.32
2022-12-28T13:17:44.176Z,7.33
2022-12-28T13:20:20.884Z,7.43
2022-12-28T13:22:51.486Z,7.40
2022-12-28T13:25:35.452Z,7.51
2022-12-28T13:28:05.036Z,7.38
2022-12-28T13:30:32.259Z,7.47
2022-12-28T13:33:05.060Z,7.39
2022-12-28T13:35:33.783Z,7.44
2022-12-28T13:38:21.904Z,7.37
2022-12-28T13:40:53.568Z,7.35
2022-12-28T13:43:39.146Z,7.37
2022-12-28T13:46:17.135Z,7.30
2022-12-28T13:48:50.472Z,7.33
2022-12-28T13:51:28.324Z,7.37
2022-12-28T13:54:00.833Z,7.32
2022-12-28T13:56:30.018Z,7.29
2022-12-28T13:59:04.872Z,7.16
2022-12-28T14:01:38.263Z,7.25
2022-12-28T14:04:50.590Z,7.18
2022-12-28T14:06:58.139Z,7.12
2022-12-28T14:09:31.597Z,7.20
2022-12-28T14:12:04.442Z,7.29
2022-12-28T14:14:38.352Z,7.11
2022-12-28T14:17:09.919Z,7.00
2022-12-28T14:20:03.425Z,7.17
2022-12-28T14:22:36.061Z,7.18
2022-12-28T14:25:03.179Z,7.08
2022-12-28T14:27:32.200Z,7.11
2022-12-28T14:30:01.914Z,7.11
2022-12-28T14:32:29.611Z,7.17
2022-12-28T14:35:00.851Z,7.26
2022-12-28T14:37:40.671Z,7.28
2022-12-28T14:40:21.445Z,7.25
2022-12-28T14:42:50.755Z,7.21
2022-12-28T14:45:23.779Z,7.29
2022-12-28T14:47:55.521Z,7.24
2022-12-28T14:50:27.906Z,7.21
2022-12-28T14:53:31.268Z,7.05
2022-12-28T14:56:06.936Z,7.15
2022-12-28T14:58:41.584Z,7.13
2022-12-28T15:01:10.020Z,7.19
2022-12-28T15:04:01.967Z,7.19
2022-12-28T15:06:31.284Z,7.33
2022-12-28T15:09:02.411Z,7.36
2022-12-28T15:11:29.554Z,7.42
2022-12-28T15:13:57.736Z,7.34
2022-12-28T15:16:28.050Z,7.05
2022-12-28T15:18:55.181Z,7.05
2022-12-28T15:21:25.915Z,7.17
2022-12-28T15:23:54.420Z,7.19
2022-12-28T15:26:23.698Z,7.13
2022-12-28T15:28:51.315Z,7.17
2022-12-28T15:31:20.458Z,7.18
2022-12-28T15:33:48.591Z,7.28
2022-12-28T15:36:21.315Z,7.18
2022-12-28T15:38:49.061Z,7.22
2022-12-28T15:41:35.909Z,7.26
2022-12-28T15:44:04.104Z,7.17
2022-12-28T15:46:31.498Z,7.23
2022-12-28T15:49:02.218Z,7.08
2022-12-28T15:51:29.451Z,7.20
2022-12-28T15:53:56.569Z,7.25
2022-12-28T15:56:25.243Z,7.22
2022-12-28T15:58:54.109Z,7.12
2022-12-28T16:01:22.837Z,7.17
2022-12-28T16:03:57.790Z,7.19
2022-12-28T16:06:26.402Z,7.14
2022-12-28T16:08:54.675Z,7.01
2022-12-28T16:11:29.547Z,7.01
2022-12-28T16:14:02.205Z,7.17
2022-12-28T16:16:32.226Z,7.08
2022-12-28T16:18:59.616Z,7.14
2022-12-28T16:21:27.300Z,7.13
2022-12-28T16:23:55.059Z,6.97
2022-12-28T16:26:22.448Z,7.13
2022-12-28T16:28:49.998Z,7.03
2022-12-28T16:31:30.580Z,6.98
2022-12-28T16:34:03.302Z,7.02
2022-12-28T16:36:30.954Z,6.90
2022-12-28T16:38:58.223Z,6.90
2022-12-28T16:41:29.956Z,6.90
2022-12-28T16:44:04.034Z,6.77
2022-12-28T16:46:31.248Z,6.81
2022-12-28T16:49:02.353Z,6.78
2022-12-28T16:51:31.021Z,6.86
2022-12-28T16:53:58.141Z,6.85
2022-12-28T16:56:25.204Z,6.86
2022-12-28T16:58:58.819Z,6.87
2022-12-28T17:01:26.365Z,6.80
2022-12-28T17:03:56.253Z,6.68
2022-12-28T17:06:25.796Z,6.73
2022-12-28T17:08:58.698Z,6.73
2022-12-28T17:11:25.775Z,6.77
2022-12-28T17:13:53.167Z,6.71
2022-12-28T17:16:20.574Z,6.65
2022-12-28T17:18:47.641Z,6.73
2022-12-28T17:21:14.773Z,6.63
2022-12-28T17:23:42.487Z,6.72
2022-12-28T17:26:09.623Z,6.64
2022-12-28T17:28:36.711Z,6.72
2022-12-28T17:31:10.728Z,6.60
2022-12-28T17:33:39.926Z,6.57
2022-12-28T17:36:08.901Z,6.57
2022-12-28T17:38:36.311Z,6.63
2022-12-28T17:41:11.803Z,6.57
2022-12-28T17:43:39.171Z,6.50
2022-12-28T17:46:06.730Z,6.53
2022-12-28T17:48:33.905Z,6.40
2022-12-28T17:51:07.916Z,6.48
2022-12-28T17:53:38.555Z,6.66
2022-12-28T17:56:08.532Z,6.60
2022-12-28T17:58:35.612Z,6.59
2022-12-28T18:01:03.242Z,6.55
2022-12-28T18:03:34.519Z,6.55
2022-12-28T18:06:08.073Z,6.56
2022-12-28T18:08:35.613Z,6.75
2022-12-28T18:11:03.405Z,6.75
2022-12-28T18:13:33.310Z,6.76
2022-12-28T18:16:03.294Z,6.75
2022-12-28T18:18:30.699Z,6.77
2022-12-28T18:21:04.423Z,6.65
2022-12-28T18:23:32.034Z,6.80
2022-12-28T18:26:08.787Z,6.77
2022-12-28T18:28:38.686Z,6.74
2022-12-28T18:31:08.273Z,6.71
2022-12-28T18:33:36.945Z,6.73
2022-12-28T18:36:06.777Z,6.74
2022-12-28T18:38:37.168Z,6.72
2022-12-28T18:41:04.603Z,6.80
2022-12-28T18:43:34.006Z,6.69
2022-12-28T18:46:02.991Z,6.68
2022-12-28T18:48:34.161Z,6.72
2022-12-28T18:51:06.961Z,6.68
2022-12-28T18:53:34.610Z,6.63
2022-12-28T18:56:13.520Z,6.73
2022-12-28T18:58:44.307Z,6.91
2022-12-28T19:01:55.874Z,6.89
2022-12-28T19:04:09.997Z,6.90
2022-12-28T19:06:37.617Z,6.90
2022-12-28T19:09:09.273Z,6.99
2022-12-28T19:11:40.174Z,7.09
2022-12-28T19:14:10.255Z,7.05
2022-12-28T19:16:37.558Z,6.95
2022-12-28T19:19:13.073Z,6.93
2022-12-28T19:21:41.818Z,6.84
2022-12-28T19:24:20.927Z,6.79
2022-12-28T19:26:48.196Z,6.82
2022-12-28T19:29:16.601Z,6.76
2022-12-28T19:31:47.740Z,6.70
2022-12-28T19:34:20.503Z,6.71
2022-12-28T19:36:47.656Z,6.60
2022-12-28T19:39:15.096Z,6.58
2022-12-28T19:41:42.403Z,6.64
2022-12-28T19:44:09.716Z,6.59
2022-12-28T19:46:44.338Z,6.60
2022-12-28T19:49:12.015Z,6.59
2022-12-28T19:51:40.461Z,6.59
2022-12-28T19:54:07.554Z,6.64
2022-12-28T19:56:37.370Z,6.55
2022-12-28T19:59:06.921Z,6.57
2022-12-28T20:01:36.918Z,6.62
2022-12-28T20:04:12.392Z,6.54
2022-12-28T20:06:43.386Z,6.57
2022-12-28T20:09:13.373Z,6.63
2022-12-28T20:11:49.921Z,6.58
2022-12-28T20:14:24.816Z,6.52
2022-12-28T20:16:52.609Z,6.57
2022-12-28T20:19:19.871Z,6.59
2022-12-28T20:21:49.463Z,6.63
2022-12-28T20:24:17.600Z,6.66
2022-12-28T20:26:44.706Z,6.71
2022-12-28T20:29:13.482Z,6.65
2022-12-28T20:31:40.618Z,6.60
2022-12-28T20:34:07.803Z,6.55
2022-12-28T20:36:35.037Z,6.50
2022-12-28T20:39:02.595Z,6.48
2022-12-28T20:41:50.802Z,6.43
2022-12-28T20:44:26.429Z,6.49
2022-12-28T20:46:54.959Z,6.46
2022-12-28T20:49:23.747Z,6.40
2022-12-28T20:51:51.375Z,6.43
2022-12-28T20:54:19.526Z,6.53
2022-12-28T20:56:53.909Z,6.58
2022-12-28T20:59:22.007Z,6.52
2022-12-28T21:01:49.258Z,6.58
2022-12-28T21:04:16.602Z,6.50
2022-12-28T21:06:43.743Z,6.51
2022-12-28T21:09:11.137Z,6.43
2022-12-28T21:11:38.382Z,6.36
2022-12-28T21:14:05.483Z,6.33
2022-12-28T21:16:32.628Z,6.16
2022-12-28T21:18:59.732Z,6.05
2022-12-28T21:21:26.901Z,5.94
2022-12-28T21:23:53.997Z,5.91
2022-12-28T21:26:21.893Z,5.92
2022-12-28T21:28:48.979Z,5.91
2022-12-28T21:31:16.154Z,5.91
2022-12-28T21:33:43.477Z,5.87
2022-12-28T21:36:16.289Z,5.87
2022-12-28T21:38:45.282Z,5.90
2022-12-28T21:41:37.799Z,5.88
2022-12-28T21:44:13.595Z,5.83
2022-12-28T21:46:41.510Z,5.84
2022-12-28T21:49:08.975Z,5.87
2022-12-28T21:51:36.281Z,5.85
2022-12-28T21:54:15.328Z,5.85
2022-12-28T21:56:44.657Z,5.86
2022-12-28T21:59:14.693Z,5.82
2022-12-28T22:02:01.559Z,5.76
2022-12-28T22:04:47.720Z,5.80
2022-12-28T22:07:18.386Z,5.80
2022-12-28T22:10:04.790Z,5.76
2022-12-28T22:12:35.086Z,5.92
2022-12-28T22:15:35.408Z,5.94
2022-12-28T22:18:53.108Z,5.98
2022-12-28T22:21:17.044Z,6.02
2022-12-28T22:23:47.755Z,6.04
2022-12-28T22:26:17.422Z,6.02
2022-12-28T22:28:44.668Z,5.97
2022-12-28T22:31:11.908Z,5.86
2022-12-28T22:33:39.117Z,5.93
2022-12-28T22:36:20.628Z,5.89
2022-12-28T22:38:48.711Z,5.94
2022-12-28T22:41:15.978Z,6.17
2022-12-28T22:43:43.178Z,6.20
2022-12-28T22:46:11.935Z,6.31
2022-12-28T22:48:39.192Z,6.41
2022-12-28T22:51:09.679Z,6.44
2022-12-28T22:53:40.728Z,6.55
2022-12-28T22:56:19.629Z,6.55
2022-12-28T22:58:47.821Z,6.58
2022-12-28T23:01:17.485Z,6.57
2022-12-28T23:03:47.179Z,6.60
2022-12-28T23:06:16.950Z,6.69
2022-12-28T23:08:44.054Z,6.76
2022-12-28T23:11:32.574Z,6.86
2022-12-28T23:14:19.950Z,6.99
2022-12-28T23:16:47.741Z,7.00
2022-12-28T23:19:34.096Z,6.93
2022-12-28T23:22:21.800Z,6.99
2022-12-28T23:25:07.816Z,7.04
2022-12-28T23:27:38.660Z,7.02
2022-12-28T23:30:09.156Z,7.08
2022-12-28T23:32:36.416Z,7.08
2022-12-28T23:35:04.213Z,7.09
2022-12-28T23:37:31.627Z,7.11
2022-12-28T23:39:58.701Z,7.04
2022-12-28T23:42:25.854Z,6.99
2022-12-28T23:44:53.476Z,7.04
2022-12-28T23:47:20.962Z,7.03
2022-12-28T23:49:49.786Z,7.08
2022-12-28T23:52:25.822Z,7.12
2022-12-28T23:54:56.219Z,7.00
2022-12-28T23:57:23.499Z,7.08
2022-12-28T23:59:50.640Z,7.18
